Time;durP1;ratioP1;P1;durP2;ratioP2;P2;SDS_P1;SDS_P2;PMS_P1;PMS_P2;Temp;Humidity;BMP_temperature;BMP_pressure;BME280_temperature;BME280_humidity;BME280_pressure;Samples;Min_cycle;Max_cycle;Signal;HPM_P1;HPM_P2
2022/03/15 00:02:00;;;;;;;43.90;22.50;;;;;;;1.55;61.36;101131.05;104751;1274;68241;-72
2022/03/15 00:04:53;;;;;;;40.70;19.50;;;;;;;1.49;61.51;101126.48;104583;1273;72764;-72
2022/03/15 00:07:44;;;;;;;44.90;20.90;;;;;;;1.45;62.05;101131.11;104686;1274;59313;-73
2022/03/15 00:10:32;;;;;;;45.10;21.90;;;;;;;1.42;62.11;101126.61;104712;1272;60270;-73
2022/03/15 00:13:21;;;;;;;46.20;21.40;;;;;;;1.38;62.18;101128.98;104638;1274;72288;-72
2022/03/15 00:16:10;;;;;;;44.60;21.40;;;;;;;1.33;62.01;101133.45;104628;1274;66930;-72
2022/03/15 00:19:01;;;;;;;43.60;21.00;;;;;;;1.28;62.81;101130.61;104877;1274;70700;-72
2022/03/15 00:21:50;;;;;;;40.80;20.20;;;;;;;1.26;62.60;101128.88;104552;1273;59393;-72
2022/03/15 00:24:39;;;;;;;44.90;21.80;;;;;;;1.23;62.89;101122.67;104854;1274;59446;-72
2022/03/15 00:27:33;;;;;;;42.60;19.80;;;;;;;1.23;62.69;101121.63;104729;1273;72286;-72
2022/03/15 00:30:24;;;;;;;41.60;19.80;;;;;;;1.19;63.23;101118.38;104881;1273;66410;-72
2022/03/15 00:33:16;;;;;;;42.20;20.30;;;;;;;1.17;63.46;101111.96;105109;1274;72160;-73
2022/03/15 00:36:05;;;;;;;37.40;19.00;;;;;;;1.13;63.49;101108.54;104717;1274;59386;-71
2022/03/15 00:38:54;;;;;;;45.80;21.00;;;;;;;1.11;63.71;101106.52;104740;1273;60540;-72
2022/03/15 00:41:46;;;;;;;41.10;20.40;;;;;;;1.07;63.70;101105.54;104805;1274;71263;-71
2022/03/15 00:44:39;;;;;;;44.20;21.60;;;;;;;1.05;63.79;101105.77;104833;1274;68176;-72
2022/03/15 00:47:31;;;;;;;45.60;22.10;;;;;;;1.03;64.15;101107.02;103836;1273;1005031;-72
2022/03/15 00:50:24;;;;;;;40.20;19.90;;;;;;;1.01;64.34;101106.01;104341;1272;1002835;-72
2022/03/15 00:53:14;;;;;;;45.50;22.50;;;;;;;0.99;64.45;101100.63;104942;1274;59401;-72
2022/03/15 00:56:04;;;;;;;40.10;20.40;;;;;;;0.97;64.19;101097.02;104692;1273;72724;-72
2022/03/15 00:58:57;;;;;;;41.90;20.40;;;;;;;0.98;64.86;101098.55;103990;1274;1003332;-72
2022/03/15 01:01:47;;;;;;;44.40;20.40;;;;;;;0.94;64.66;101091.30;105086;1274;73053;-72
2022/03/15 01:04:36;;;;;;;47.30;22.30;;;;;;;0.98;64.91;101097.70;104865;1272;59247;-73
2022/03/15 01:07:25;;;;;;;43.60;20.60;;;;;;;0.97;64.80;101094.38;104673;1273;60947;-74
2022/03/15 01:10:14;;;;;;;42.10;20.30;;;;;;;0.97;65.15;101095.77;104621;1274;72424;-72
2022/03/15 01:13:03;;;;;;;48.50;23.30;;;;;;;0.99;65.26;101095.39;104935;1274;68500;-72
2022/03/15 01:15:54;;;;;;;36.60;18.20;;;;;;;1.01;65.06;101089.94;104771;1273;73009;-72
2022/03/15 01:18:43;;;;;;;42.20;20.60;;;;;;;1.02;65.07;101090.79;103154;1273;1003040;-72
2022/03/15 01:21:35;;;;;;;40.50;19.50;;;;;;;1.01;64.90;101085.21;104868;1274;59365;-72
2022/03/15 01:24:24;;;;;;;42.20;21.10;;;;;;;1.02;65.24;101080.48;104597;1273;72154;-72
2022/03/15 01:27:15;;;;;;;45.50;22.00;;;;;;;1.01;65.41;101082.23;105125;1274;68302;-72
2022/03/15 01:30:06;;;;;;;45.10;20.30;;;;;;;1.02;65.25;101082.23;104712;1273;73724;-72
2022/03/15 01:32:55;;;;;;;45.10;21.90;;;;;;;1.04;65.32;101079.39;104846;1274;59316;-72
2022/03/15 01:35:44;;;;;;;41.20;19.70;;;;;;;1.05;65.23;101080.60;104642;1274;60522;-72
2022/03/15 01:38:34;;;;;;;44.00;22.30;;;;;;;1.06;65.31;101072.71;104015;1273;1002917;-72
2022/03/15 01:41:24;;;;;;;39.60;19.10;;;;;;;1.05;65.18;101067.83;104933;1274;66603;-72
2022/03/15 01:44:20;;;;;;;45.70;20.60;;;;;;;1.06;65.51;101065.90;103824;1277;1003650;-73
2022/03/15 01:47:08;;;;;;;48.50;22.80;;;;;;;1.06;65.19;101064.48;104535;1277;59508;-73
2022/03/15 01:49:57;;;;;;;43.40;20.40;;;;;;;1.06;65.39;101068.49;104608;1277;59331;-72
2022/03/15 01:52:46;;;;;;;42.10;20.40;;;;;;;1.06;65.28;101069.37;103992;1276;1003138;-72
2022/03/15 01:55:35;;;;;;;41.30;20.20;;;;;;;1.06;65.16;101073.23;104439;1277;68324;-72
2022/03/15 01:58:25;;;;;;;38.50;19.20;;;;;;;1.05;65.43;101069.75;104463;1277;71648;-72
2022/03/15 02:01:13;;;;;;;46.80;20.20;;;;;;;1.05;65.37;101075.88;104754;1277;59388;-72
2022/03/15 02:04:05;;;;;;;42.60;21.00;;;;;;;1.03;65.59;101075.40;104485;1276;60677;-71
2022/03/15 02:07:10;;;;;;;41.40;21.00;;;;;;;1.00;65.66;101074.92;103974;1277;1003663;-71
2022/03/15 02:09:59;;;;;;;47.70;21.00;;;;;;;0.98;65.61;101075.31;104819;1276;66278;-72
2022/03/15 02:12:50;;;;;;;38.20;19.00;;;;;;;0.97;65.68;101072.20;104484;1276;72906;-72
2022/03/15 02:15:39;;;;;;;49.80;23.00;;;;;;;0.96;65.83;101070.66;104547;1273;59268;-71
2022/03/15 02:18:29;;;;;;;40.80;21.30;;;;;;;0.97;65.93;101065.56;104771;1274;59419;-72
2022/03/15 02:21:20;;;;;;;43.90;21.10;;;;;;;0.98;65.76;101056.27;104760;1274;69743;-72
2022/03/15 02:24:10;;;;;;;42.10;21.70;;;;;;;1.01;65.63;101055.84;104152;1274;1003903;-72
2022/03/15 02:27:05;;;;;;;40.80;19.80;;;;;;;1.02;65.47;101055.14;104842;1274;72318;-72
2022/03/15 02:29:54;;;;;;;43.00;21.00;;;;;;;1.01;65.37;101064.96;104938;1273;59298;-72
2022/03/15 02:32:44;;;;;;;40.80;19.70;;;;;;;1.02;65.47;101074.36;104900;1274;60379;-71
2022/03/15 02:35:33;;;;;;;43.30;22.10;;;;;;;1.00;65.48;101053.59;104057;1274;1003898;-72
2022/03/15 02:38:24;;;;;;;41.60;20.70;;;;;;;0.99;65.27;101052.21;104652;1274;67282;-72
2022/03/15 02:41:14;;;;;;;45.10;20.00;;;;;;;0.97;65.60;101057.33;104885;1274;73209;-74
2022/03/15 02:44:04;;;;;;;43.20;22.40;;;;;;;0.94;65.46;101057.05;104881;1273;59242;-72
2022/03/15 02:46:52;;;;;;;36.50;19.20;;;;;;;0.90;65.47;101059.23;104836;1274;60352;-71
2022/03/15 02:49:45;;;;;;;37.10;18.60;;;;;;;0.84;65.57;101059.19;104905;1273;72766;-73
2022/03/15 02:52:34;;;;;;;34.20;17.10;;;;;;;0.80;65.64;101054.20;104865;1272;66850;-72
2022/03/15 02:55:25;;;;;;;43.20;22.30;;;;;;;0.75;65.64;101045.92;104736;1274;73222;-72
2022/03/15 02:58:18;;;;;;;65.40;26.30;;;;;;;0.69;65.58;101042.55;104878;1274;59300;-71
2022/03/15 03:01:08;;;;;;;135.00;43.20;;;;;;;0.64;65.54;101045.46;104770;1274;60516;-71
2022/03/15 03:03:58;;;;;;;102.20;36.80;;;;;;;0.57;65.71;101042.63;105093;1274;70179;-71
2022/03/15 03:06:48;;;;;;;73.40;28.50;;;;;;;0.50;66.01;101046.61;104754;1274;68477;-71
2022/03/15 03:09:37;;;;;;;59.50;26.60;;;;;;;0.45;66.16;101046.73;104729;1274;72980;-72
2022/03/15 03:12:30;;;;;;;58.70;26.60;;;;;;;0.39;66.29;101045.27;104778;1274;59413;-73
2022/03/15 03:15:22;;;;;;;54.70;25.20;;;;;;;0.32;66.35;101040.69;104182;1274;1003718;-72
2022/03/15 03:18:11;;;;;;;46.60;23.30;;;;;;;0.26;66.75;101043.24;104849;1274;71399;-72
2022/03/15 03:21:04;;;;;;;47.20;22.40;;;;;;;0.22;66.91;101052.75;104085;1274;1002957;-71
2022/03/15 03:23:56;;;;;;;52.80;25.40;;;;;;;0.17;68.12;101062.44;104760;1274;73404;-71
2022/03/15 03:26:44;;;;;;;54.80;28.20;;;;;;;0.12;68.40;101068.30;104809;1274;59292;-72
2022/03/15 03:29:34;;;;;;;58.80;28.60;;;;;;;0.09;68.10;101073.60;104700;1274;59574;-72
2022/03/15 03:32:23;;;;;;;53.90;27.10;;;;;;;0.05;68.41;101072.61;104794;1274;72599;-71
2022/03/15 03:35:12;;;;;;;54.90;27.20;;;;;;;0.04;68.55;101059.73;104084;1273;1002964;-71
2022/03/15 03:38:01;;;;;;;58.10;26.90;;;;;;;0.00;68.28;101061.19;105059;1274;71540;-72
2022/03/15 03:40:51;;;;;;;45.90;23.00;;;;;;;-0.04;69.18;101063.17;104636;1271;59214;-71
2022/03/15 03:43:40;;;;;;;46.70;22.00;;;;;;;-0.06;69.08;101063.73;104433;1274;1003640;-73
2022/03/15 03:46:31;;;;;;;40.70;19.30;;;;;;;-0.09;69.58;101063.96;104892;1271;70305;-71
2022/03/15 03:49:20;;;;;;;51.10;24.50;;;;;;;-0.12;69.59;101063.15;104786;1271;67350;-72
2022/03/15 03:52:12;;;;;;;42.60;22.30;;;;;;;-0.16;70.06;101061.29;104724;1272;73037;-71
2022/03/15 03:55:01;;;;;;;44.10;21.20;;;;;;;-0.19;70.27;101055.76;104983;1271;59284;-72
2022/03/15 03:57:51;;;;;;;39.30;16.60;;;;;;;-0.23;70.18;101051.13;104978;1272;59380;-71
2022/03/15 04:00:39;;;;;;;40.40;20.80;;;;;;;-0.22;70.48;101056.52;105094;1271;72700;-71
2022/03/15 04:03:31;;;;;;;36.20;18.40;;;;;;;-0.24;70.57;101065.98;104720;1271;67220;-71
2022/03/15 04:06:22;;;;;;;46.00;23.00;;;;;;;-0.26;70.95;101058.50;104991;1274;72099;-71
2022/03/15 04:09:11;;;;;;;46.50;21.90;;;;;;;-0.29;70.90;101048.10;104679;1274;59379;-71
2022/03/15 04:11:59;;;;;;;46.40;22.70;;;;;;;-0.28;71.05;101050.88;104784;1271;60717;-71
2022/03/15 04:14:48;;;;;;;45.40;22.50;;;;;;;-0.25;70.90;101044.35;104884;1274;71280;-71
2022/03/15 04:17:37;;;;;;;45.90;21.70;;;;;;;-0.24;70.58;101042.60;104683;1273;67184;-71
2022/03/15 04:20:26;;;;;;;74.10;30.30;;;;;;;-0.25;70.66;101042.44;104648;1274;72876;-71
2022/03/15 04:23:15;;;;;;;54.70;24.20;;;;;;;-0.25;70.63;101040.85;104887;1272;59400;-74
2022/03/15 04:26:05;;;;;;;47.70;23.00;;;;;;;-0.22;70.32;101036.28;104784;1272;59319;-73
2022/03/15 04:28:55;;;;;;;43.70;22.50;;;;;;;-0.20;70.69;101032.06;104194;1272;1003711;-74
2022/03/15 04:31:44;;;;;;;46.30;23.10;;;;;;;-0.18;70.23;101026.78;105011;1274;68048;-74
2022/03/15 04:34:35;;;;;;;47.40;24.30;;;;;;;-0.19;70.26;101022.63;105101;1272;72736;-74
2022/03/15 04:37:25;;;;;;;53.60;26.30;;;;;;;-0.16;70.29;101025.54;104227;1271;1003297;-74
2022/03/15 04:40:14;;;;;;;52.10;26.90;;;;;;;-0.15;69.98;101025.70;104812;1271;59374;-73
2022/03/15 04:43:04;;;;;;;54.10;25.90;;;;;;;-0.13;69.75;101017.64;104913;1272;71047;-74
2022/03/15 04:45:54;;;;;;;56.40;26.50;;;;;;;-0.10;69.76;101023.67;104928;1274;67556;-73
2022/03/15 04:48:45;;;;;;;46.70;23.70;;;;;;;-0.06;69.68;101026.05;104802;1272;73384;-73
2022/03/15 04:51:35;;;;;;;43.40;22.30;;;;;;;-0.04;69.76;101032.30;105093;1272;59454;-73
2022/03/15 04:54:26;;;;;;;47.20;22.40;;;;;;;-0.01;69.61;101033.27;104974;1274;59355;-73
2022/03/15 04:57:24;;;;;;;46.60;23.70;;;;;;;0.02;69.53;101030.80;104904;1273;72739;-74
2022/03/15 05:00:15;;;;;;;46.20;21.80;;;;;;;0.02;69.70;101024.16;105189;1271;68518;-73
2022/03/15 05:03:03;;;;;;;41.90;21.80;;;;;;;0.02;69.71;101024.33;104918;1272;71562;-73
2022/03/15 05:05:53;;;;;;;46.60;23.80;;;;;;;0.03;69.70;101026.05;104858;1271;59332;-74
2022/03/15 05:08:41;;;;;;;43.40;19.80;;;;;;;0.06;69.64;101027.05;105008;1271;60742;-75
2022/03/15 05:11:31;;;;;;;43.20;22.00;;;;;;;0.09;69.78;101035.55;104851;1273;72613;-76
2022/03/15 05:14:23;;;;;;;45.50;23.30;;;;;;;0.11;70.05;101038.14;105182;1272;66184;-75
2022/03/15 05:17:11;;;;;;;44.60;22.70;;;;;;;0.12;69.59;101037.06;104873;1271;73179;-73
2022/03/15 05:20:01;;;;;;;41.30;20.90;;;;;;;0.12;69.40;101033.05;104280;1271;1002975;-74
2022/03/15 05:22:50;;;;;;;44.60;23.30;;;;;;;0.11;69.19;101029.75;104923;1274;59720;-74
2022/03/15 05:25:39;;;;;;;44.30;22.60;;;;;;;0.12;69.76;101039.48;104959;1271;70996;-74
2022/03/15 05:28:28;;;;;;;48.40;24.10;;;;;;;0.13;69.75;101039.30;104365;1271;1003282;-74
2022/03/15 05:31:20;;;;;;;45.20;23.00;;;;;;;0.15;69.31;101032.45;105032;1274;73367;-72
2022/03/15 05:34:16;;;;;;;44.50;21.60;;;;;;;0.16;69.07;101030.16;104759;1273;59464;-74
2022/03/15 05:37:08;;;;;;;50.40;24.20;;;;;;;0.21;69.23;101036.71;104827;1271;59338;-73
2022/03/15 05:40:07;;;;;;;50.10;24.80;;;;;;;0.25;68.98;101033.84;104923;1271;71614;-73
2022/03/15 05:42:58;;;;;;;46.80;23.20;;;;;;;0.30;68.65;101032.52;105132;1271;68285;-74
2022/03/15 05:45:47;;;;;;;46.30;22.00;;;;;;;0.34;68.57;101025.80;104945;1271;73461;-73
2022/03/15 05:48:41;;;;;;;47.60;23.60;;;;;;;0.39;68.36;101025.20;104994;1274;59334;-75
2022/03/15 05:51:30;;;;;;;44.90;23.60;;;;;;;0.44;68.23;101025.27;104997;1273;60420;-74
2022/03/15 05:54:18;;;;;;;50.50;24.30;;;;;;;0.49;68.02;101020.27;104924;1272;70239;-75
2022/03/15 05:57:07;;;;;;;48.30;24.00;;;;;;;0.55;67.88;101022.42;104872;1274;66511;-76
2022/03/15 05:59:56;;;;;;;43.80;20.90;;;;;;;0.62;67.69;101025.09;105117;1272;73078;-75
2022/03/15 06:02:45;;;;;;;52.70;25.40;;;;;;;0.66;67.70;101023.40;104721;1273;59348;-73
2022/03/15 06:05:39;;;;;;;43.70;22.90;;;;;;;0.72;67.41;101008.61;105259;1271;59283;-74
2022/03/15 06:08:30;;;;;;;45.10;23.30;;;;;;;0.81;67.08;101009.98;105400;1271;72675;-72
2022/03/15 06:11:20;;;;;;;53.90;25.90;;;;;;;0.91;66.85;101013.09;104994;1271;68260;-74
2022/03/15 06:14:08;;;;;;;53.20;25.90;;;;;;;1.00;66.55;101016.38;104298;1273;1003637;-73
2022/03/15 06:16:57;;;;;;;52.00;24.30;;;;;;;1.11;66.08;101019.45;104215;1271;1003440;-73
2022/03/15 06:19:46;;;;;;;57.80;26.30;;;;;;;1.25;65.73;101016.50;104885;1271;59576;-73
2022/03/15 06:22:39;;;;;;;51.70;25.80;;;;;;;1.37;65.38;101012.86;104867;1273;72769;-74
2022/03/15 06:25:30;;;;;;;54.60;25.80;;;;;;;1.48;64.94;101009.81;105005;1271;68465;-74
2022/03/15 06:28:19;;;;;;;54.20;25.70;;;;;;;1.63;64.64;101014.70;104692;1273;71524;-74
2022/03/15 06:31:14;;;;;;;52.20;26.10;;;;;;;1.77;64.33;101018.20;105304;1271;59334;-74
2022/03/15 06:34:04;;;;;;;54.10;27.20;;;;;;;1.90;63.95;101019.77;104180;1273;1003330;-75
2022/03/15 06:36:53;;;;;;;58.70;26.80;;;;;;;2.05;63.63;101026.20;105373;1271;72547;-75
2022/03/15 06:39:48;;;;;;;57.30;26.50;;;;;;;2.20;62.98;101028.06;104893;1274;69146;-74
2022/03/15 06:42:38;;;;;;;43.80;21.80;;;;;;;2.34;62.23;101034.34;105015;1271;73378;-74
2022/03/15 06:45:29;;;;;;;42.90;21.80;;;;;;;2.46;61.63;101040.48;104917;1272;59401;-75
2022/03/15 06:48:19;;;;;;;54.10;26.90;;;;;;;2.52;61.74;101039.96;104757;1274;60326;-74
2022/03/15 06:51:08;;;;;;;51.30;25.50;;;;;;;2.60;61.92;101043.27;104234;1271;1002915;-74
2022/03/15 06:53:57;;;;;;;50.10;25.00;;;;;;;2.66;61.40;101044.83;104841;1271;68466;-75
2022/03/15 06:56:45;;;;;;;55.20;28.80;;;;;;;2.79;61.06;101048.29;104841;1273;71754;-74
2022/03/15 06:59:34;;;;;;;66.70;32.50;;;;;;;2.95;61.09;101044.30;104907;1272;59305;-75
2022/03/15 07:02:24;;;;;;;56.10;28.00;;;;;;;3.16;60.70;101051.57;105229;1271;60693;-73
2022/03/15 07:05:13;;;;;;;60.30;32.10;;;;;;;3.50;59.99;101052.75;104980;1271;72667;-74
2022/03/15 07:08:03;;;;;;;61.30;31.60;;;;;;;4.96;58.13;101053.89;105004;1272;68904;-75
2022/03/15 07:10:53;;;;;;;61.60;31.80;;;;;;;6.80;54.77;101047.40;105323;1271;73065;-75
2022/03/15 07:13:45;;;;;;;60.20;31.20;;;;;;;8.45;49.61;101039.31;105005;1272;59403;-75
2022/03/15 07:16:34;;;;;;;58.50;32.90;;;;;;;9.65;45.26;101040.80;104989;1272;59368;-75
2022/03/15 07:19:22;;;;;;;55.30;31.10;;;;;;;10.88;43.48;101035.36;104880;1273;71796;-75
2022/03/15 07:22:14;;;;;;;51.90;28.90;;;;;;;12.02;40.30;101032.86;104814;1272;66915;-77
2022/03/15 07:25:04;;;;;;;54.80;28.10;;;;;;;13.14;37.93;101027.14;105096;1271;72910;-76
2022/03/15 07:27:52;;;;;;;45.50;27.30;;;;;;;14.09;35.36;101024.69;104787;1274;59820;-77
2022/03/15 07:30:41;;;;;;;42.10;25.40;;;;;;;14.89;32.51;101016.51;105157;1271;60392;-76
2022/03/15 07:33:29;;;;;;;38.30;24.50;;;;;;;15.52;31.30;101014.38;104904;1272;72542;-76
2022/03/15 07:36:19;;;;;;;36.70;24.30;;;;;;;16.09;30.66;101016.94;104673;1273;68128;-76
2022/03/15 07:39:08;;;;;;;38.50;23.20;;;;;;;16.78;29.74;101008.13;104862;1271;72983;-77
2022/03/15 07:41:57;;;;;;;45.50;22.90;;;;;;;17.39;28.30;101007.32;104926;1271;59439;-77
2022/03/15 07:44:47;;;;;;;35.50;22.40;;;;;;;17.86;26.90;101004.56;104980;1271;60452;-77
2022/03/15 07:47:37;;;;;;;33.40;22.20;;;;;;;18.20;25.94;100999.29;104933;1271;71551;-77
2022/03/15 07:50:26;;;;;;;35.20;22.90;;;;;;;18.61;25.26;100990.33;104868;1271;67723;-76
2022/03/15 07:53:15;;;;;;;34.80;23.60;;;;;;;18.98;24.82;100983.51;104831;1273;71297;-76
2022/03/15 07:56:06;;;;;;;35.80;23.50;;;;;;;19.39;24.15;100980.45;105150;1271;60505;-78
2022/03/15 07:58:55;;;;;;;34.80;23.00;;;;;;;19.77;23.65;100979.06;104806;1273;59456;-76
2022/03/15 08:01:47;;;;;;;35.80;21.80;;;;;;;20.09;23.01;100978.52;104874;1271;71879;-76
2022/03/15 08:04:39;;;;;;;33.20;22.10;;;;;;;20.56;22.48;100975.94;104805;1274;68668;-75
2022/03/15 08:07:28;;;;;;;34.90;22.30;;;;;;;20.86;21.80;100974.76;105064;1271;71829;-77
2022/03/15 08:10:17;;;;;;;33.20;23.10;;;;;;;21.20;21.39;100972.34;105176;1271;59311;-76
2022/03/15 08:13:05;;;;;;;35.20;21.90;;;;;;;21.55;21.14;100968.05;104846;1271;59670;-77
2022/03/15 08:15:54;;;;;;;36.30;21.80;;;;;;;22.00;20.34;100968.15;105176;1271;72508;-77
2022/03/15 08:18:43;;;;;;;32.10;21.60;;;;;;;22.45;19.91;100967.49;104954;1271;67517;-76
2022/03/15 08:21:32;;;;;;;36.00;22.50;;;;;;;22.65;19.24;100968.53;105159;1271;72814;-76
2022/03/15 08:24:22;;;;;;;33.30;21.40;;;;;;;22.86;19.10;100963.67;105020;1272;59211;-78
2022/03/15 08:27:14;;;;;;;29.00;20.60;;;;;;;23.36;18.76;100964.86;104954;1272;60711;-77
2022/03/15 08:30:05;;;;;;;30.90;21.10;;;;;;;23.90;17.70;100959.96;104973;1272;72561;-77
2022/03/15 08:32:54;;;;;;;35.30;20.50;;;;;;;23.95;17.43;100962.80;105098;1271;67933;-79
2022/03/15 08:35:44;;;;;;;28.10;19.60;;;;;;;23.90;17.44;100962.64;105082;1271;72961;-77
2022/03/15 08:38:34;;;;;;;30.60;20.60;;;;;;;23.77;17.33;100970.69;105234;1273;59401;-77
2022/03/15 08:41:23;;;;;;;34.20;21.40;;;;;;;23.85;17.24;100973.58;104750;1275;60059;-77
2022/03/15 08:44:12;;;;;;;29.50;21.20;;;;;;;23.88;16.83;100974.35;105196;1271;73023;-77
2022/03/15 08:47:00;;;;;;;30.90;21.00;;;;;;;23.87;16.80;100978.66;104968;1274;67807;-78
2022/03/15 08:49:49;;;;;;;30.60;21.30;;;;;;;23.67;16.58;100983.19;105128;1274;71643;-78
2022/03/15 08:52:38;;;;;;;34.60;22.30;;;;;;;23.54;17.41;100983.23;105010;1274;59209;-77
2022/03/15 08:55:28;;;;;;;44.40;25.80;;;;;;;23.41;18.00;100985.64;104884;1274;59741;-77
2022/03/15 08:58:17;;;;;;;40.60;25.60;;;;;;;23.43;18.05;100987.73;104960;1274;71670;-77
2022/03/15 09:01:06;;;;;;;38.80;24.50;;;;;;;23.68;18.13;100989.36;104918;1277;67074;-77
2022/03/15 09:04:15;;;;;;;38.90;25.20;;;;;;;23.73;18.04;100985.64;104992;1274;73531;-77
2022/03/15 09:07:03;;;;;;;36.70;25.60;;;;;;;23.64;18.23;100984.23;105031;1274;59339;-78
2022/03/15 09:09:54;;;;;;;36.80;24.00;;;;;;;23.25;18.23;100987.02;104891;1274;59446;-76
2022/03/15 09:12:44;;;;;;;36.40;24.00;;;;;;;22.48;18.81;100997.35;105226;1275;72409;-78
2022/03/15 09:15:33;;;;;;;39.60;24.60;;;;;;;22.05;19.19;100998.08;104920;1274;68616;-79
2022/03/15 09:18:27;;;;;;;32.50;22.70;;;;;;;22.22;19.01;100992.02;104946;1274;70726;-79
2022/03/15 09:21:16;;;;;;;32.80;22.20;;;;;;;22.41;18.56;100991.01;104800;1274;59491;-78
2022/03/15 09:24:07;;;;;;;33.30;21.10;;;;;;;22.61;18.31;100984.03;105138;1274;60669;-79
2022/03/15 09:26:56;;;;;;;35.60;21.90;;;;;;;22.89;18.10;100980.84;104778;1275;71696;-80
2022/03/15 09:29:45;;;;;;;32.80;21.60;;;;;;;23.27;17.68;100974.64;104646;1274;68255;-78
2022/03/15 09:32:37;;;;;;;35.70;22.50;;;;;;;23.71;17.29;100977.03;104793;1277;73004;-79
2022/03/15 09:35:26;;;;;;;30.60;20.70;;;;;;;23.94;16.92;100974.02;105125;1274;59305;-79
2022/03/15 09:38:15;;;;;;;31.70;21.50;;;;;;;24.18;16.59;100970.03;105132;1274;61034;-80
2022/03/15 09:41:05;;;;;;;33.20;21.50;;;;;;;24.49;16.83;100970.63;104708;1275;71314;-78
2022/03/15 09:43:57;;;;;;;32.00;22.20;;;;;;;24.81;16.24;100969.39;104735;1275;68425;-77
2022/03/15 09:46:51;;;;;;;30.20;21.00;;;;;;;24.90;15.87;100966.77;104748;1275;73003;-78
2022/03/15 09:49:46;;;;;;;30.70;21.10;;;;;;;24.88;15.73;100963.44;104780;1277;59386;-78
2022/03/15 09:52:39;;;;;;;30.00;21.30;;;;;;;24.41;15.93;100963.91;105010;1275;60571;-78
2022/03/15 09:55:30;;;;;;;31.70;21.60;;;;;;;24.20;16.21;100959.98;104893;1274;71557;-78
2022/03/15 09:58:21;;;;;;;28.90;21.30;;;;;;;24.60;16.35;100966.42;104886;1275;68154;-78
2022/03/15 10:01:18;;;;;;;30.80;20.60;;;;;;;25.15;15.77;100957.15;104773;1274;73475;-78
2022/03/15 10:04:09;;;;;;;30.80;20.90;;;;;;;25.68;15.15;100961.18;104775;1278;59517;-78
2022/03/15 10:06:57;;;;;;;26.20;18.40;;;;;;;26.06;14.36;100956.52;104737;1274;60267;-79
2022/03/15 10:09:46;;;;;;;26.00;19.10;;;;;;;26.13;14.36;100952.89;104843;1274;73030;-80
2022/03/15 10:12:37;;;;;;;25.70;18.70;;;;;;;26.26;14.33;100947.58;104830;1274;66463;-78
2022/03/15 10:15:26;;;;;;;24.90;19.10;;;;;;;26.10;14.43;100948.73;104971;1274;73061;-78
2022/03/15 10:18:21;;;;;;;25.30;18.00;;;;;;;26.32;14.20;100945.39;104801;1274;59307;-78
2022/03/15 10:21:10;;;;;;;26.30;18.80;;;;;;;26.73;13.90;100936.14;104808;1274;59935;-78
2022/03/15 10:23:59;;;;;;;28.20;22.30;;;;;;;26.92;13.47;100937.31;105019;1274;72484;-79
2022/03/15 10:26:50;;;;;;;25.10;18.30;;;;;;;27.17;13.21;100935.14;104768;1275;68842;-80
2022/03/15 10:29:39;;;;;;;26.20;17.80;;;;;;;27.30;13.12;100935.23;104954;1275;71186;-78
2022/03/15 10:32:31;;;;;;;23.70;18.20;;;;;;;27.35;13.03;100937.27;104729;1274;59394;-79
2022/03/15 10:35:31;;;;;;;26.20;17.90;;;;;;;27.35;13.26;100934.42;104904;1275;59342;-79
2022/03/15 10:38:22;;;;;;;28.40;17.60;;;;;;;26.90;13.23;100938.11;105319;1274;72508;-80
2022/03/15 10:41:15;;;;;;;28.20;18.40;;;;;;;26.54;13.64;100933.43;104874;1274;66794;-79
2022/03/15 10:44:14;;;;;;;26.70;18.20;;;;;;;26.40;14.02;100931.32;104868;1274;72915;-79
2022/03/15 10:47:02;;;;;;;23.40;16.90;;;;;;;26.33;13.89;100930.73;104957;1274;59301;-78
2022/03/15 10:50:03;;;;;;;27.60;19.90;;;;;;;26.19;13.84;100928.08;105038;1274;60383;-78
2022/03/15 10:52:53;;;;;;;24.80;18.10;;;;;;;26.35;13.80;100930.25;104938;1273;72798;-78
2022/03/15 10:55:42;;;;;;;25.80;17.70;;;;;;;26.47;13.98;100922.87;104969;1274;66967;-77
2022/03/15 10:58:34;;;;;;;26.40;18.10;;;;;;;26.55;13.62;100917.39;104887;1274;72987;-77
2022/03/15 11:01:25;;;;;;;25.70;18.20;;;;;;;26.04;14.01;100920.73;104986;1274;59346;-77
2022/03/15 11:04:17;;;;;;;22.20;17.30;;;;;;;25.85;14.50;100911.27;104854;1274;60547;-78
2022/03/15 11:07:06;;;;;;;25.60;18.70;;;;;;;26.09;14.38;100909.65;104889;1275;71229;-79
2022/03/15 11:10:13;;;;;;;23.00;17.40;;;;;;;26.11;14.38;100907.16;104876;1275;66926;-78
2022/03/15 11:13:11;;;;;;;25.30;17.50;;;;;;;26.04;14.39;100904.99;104898;1274;72843;-79
2022/03/15 11:16:06;;;;;;;25.00;17.00;;;;;;;26.03;14.28;100907.12;105104;1273;59380;-80
2022/03/15 11:18:57;;;;;;;22.70;17.60;;;;;;;25.92;14.61;100908.49;105170;1274;60303;-79
2022/03/15 11:21:48;;;;;;;23.30;17.40;;;;;;;25.77;14.78;100902.25;104985;1274;72692;-80
2022/03/15 11:24:43;;;;;;;23.20;17.30;;;;;;;25.52;15.08;100905.33;104979;1274;66419;-79
2022/03/15 11:27:39;;;;;;;25.10;18.10;;;;;;;25.12;15.57;100903.98;105233;1274;73013;-79
2022/03/15 11:30:30;;;;;;;23.60;17.20;;;;;;;24.41;15.92;100899.80;104977;1274;59395;-78
2022/03/15 11:33:19;;;;;;;24.00;17.60;;;;;;;23.57;17.06;100902.52;105170;1275;59596;-79
2022/03/15 11:36:13;;;;;;;26.10;18.30;;;;;;;22.98;17.74;100903.83;105206;1272;72454;-78
2022/03/15 11:39:03;;;;;;;27.30;18.50;;;;;;;21.86;18.96;100912.05;104988;1273;66843;-78
2022/03/15 11:41:52;;;;;;;26.00;18.10;;;;;;;21.25;20.06;100914.02;105051;1274;73045;-79
2022/03/15 11:45:35;;;;;;;24.80;18.50;;;;;;;21.35;20.76;100910.12;105032;1274;59431;-79
2022/03/15 11:49:20;;;;;;;23.10;17.20;;;;;;;21.53;20.89;100907.65;104945;1274;59426;-78
2022/03/15 11:52:23;;;;;;;24.20;16.90;;;;;;;21.65;20.73;100912.09;104946;1273;72665;-78
2022/03/15 11:55:50;;;;;;;25.20;17.90;;;;;;;21.50;20.62;100907.56;104986;1274;66478;-78
2022/03/15 11:58:38;;;;;;;26.10;18.30;;;;;;;21.08;21.04;100899.83;105133;1274;72738;-77
2022/03/15 12:01:28;;;;;;;24.20;16.60;;;;;;;20.79;21.28;100898.30;105055;1275;59426;-79
2022/03/15 12:04:22;;;;;;;26.00;16.90;;;;;;;20.69;21.75;100897.23;104909;1272;59395;-78
2022/03/15 12:07:13;;;;;;;25.00;18.10;;;;;;;20.48;21.94;100894.41;104976;1274;73118;-79
2022/03/15 12:10:09;;;;;;;24.90;16.40;;;;;;;20.25;22.29;100897.76;104992;1274;68182;-78
2022/03/15 12:13:03;;;;;;;27.60;18.20;;;;;;;19.85;23.12;100904.40;105087;1273;70963;-77
2022/03/15 12:15:52;;;;;;;25.20;16.60;;;;;;;19.31;23.92;100907.75;104934;1273;59278;-77
2022/03/15 12:18:47;;;;;;;27.10;18.30;;;;;;;18.55;25.07;100901.73;105244;1274;60733;-77
2022/03/15 12:21:54;;;;;;;28.20;17.70;;;;;;;17.78;26.49;100909.63;104673;1274;72683;-77
2022/03/15 12:24:46;;;;;;;27.90;18.90;;;;;;;17.09;28.28;100908.20;105158;1273;68422;-76
2022/03/15 12:27:47;;;;;;;29.50;20.40;;;;;;;16.39;30.77;100904.95;104911;1274;71445;-77
2022/03/15 12:30:51;;;;;;;28.70;20.20;;;;;;;15.96;33.19;100914.91;104934;1274;59942;-75
2022/03/15 12:33:40;;;;;;;31.00;20.00;;;;;;;16.03;34.25;100912.27;105387;1273;59374;-76
2022/03/15 12:36:59;;;;;;;27.30;19.80;;;;;;;15.99;34.72;100911.31;104784;1273;71788;-77
2022/03/15 12:39:56;;;;;;;28.80;18.70;;;;;;;15.76;35.27;100908.63;105472;1273;66837;-76
2022/03/15 12:42:57;;;;;;;31.60;21.20;;;;;;;15.41;36.00;100912.31;104917;1274;72636;-76
2022/03/15 12:45:49;;;;;;;31.70;21.40;;;;;;;14.95;37.06;100916.09;104859;1274;59449;-76
2022/03/15 12:48:46;;;;;;;28.20;19.30;;;;;;;14.74;37.78;100915.52;105285;1273;60618;-75
2022/03/15 12:51:45;;;;;;;29.30;19.70;;;;;;;14.46;38.45;100912.42;104823;1274;72554;-76
2022/03/15 12:54:36;;;;;;;27.60;18.70;;;;;;;14.11;39.38;100912.71;105165;1273;68066;-75